Terminal Aerodrome Forecast
Issued by NWS Chicago, IL

Home | Current Version | Previous Version | Text Only | Print | Product List | Glossary On
Versions: 1 2 3 4 5 6 7 8 9 10 11 12 13 14 15 16 17 18 19 20 21 22 23 24 25
000
FTUS43 KLOT 250302 AAA
TAFRFD
TAF AMD
KRFD 250302Z 2503/2524 24005KT P6SM FEW035 BKN200
     FM250400 24006KT P6SM VCSH SCT035 BKN150
      TEMPO 2504/2505 -SHRA
     FM250600 28004KT P6SM VCTS SCT040CB BKN100
      TEMPO 2506/2510 3SM TSRA SCT010 BKN025CB
     FM251200 31007KT P6SM VCSH BKN025
     FM251700 30009KT P6SM SCT035
     FM252000 31011KT P6SM SCT150=

USA.gov is the U.S. government's official web portal to all federal, state and local government web resources and services.